createdAt,value
2023-01-27T00:03:25.396Z,72.87
2023-01-27T00:08:30.485Z,72.47
2023-01-27T00:13:34.225Z,72.90
2023-01-27T00:18:38.336Z,72.74
2023-01-27T00:24:00.629Z,72.49
2023-01-27T00:29:04.506Z,72.08
2023-01-27T00:34:11.448Z,72.14
2023-01-27T00:39:15.752Z,71.99
2023-01-27T00:44:20.414Z,72.40
2023-01-27T00:49:24.794Z,71.87
2023-01-27T00:54:28.684Z,71.82
2023-01-27T00:59:33.205Z,71.89
2023-01-27T01:04:37.073Z,71.87
2023-01-27T01:09:41.954Z,71.61
2023-01-27T01:14:45.698Z,71.60
2023-01-27T01:19:50.722Z,71.88
2023-01-27T01:24:55.442Z,71.96
2023-01-27T01:29:59.621Z,71.84
2023-01-27T01:35:03.570Z,72.15
2023-01-27T01:40:09.265Z,71.54
2023-01-27T01:45:34.562Z,71.99
2023-01-27T01:50:41.797Z,71.42
2023-01-27T01:55:47.085Z,71.87
2023-01-27T02:00:51.177Z,71.41
2023-01-27T02:05:57.059Z,71.60
2023-01-27T02:11:00.957Z,71.55
2023-01-27T02:16:05.018Z,71.53
2023-01-27T02:21:09.864Z,71.62
2023-01-27T02:26:22.826Z,71.80
2023-01-27T02:31:26.934Z,71.43
2023-01-27T02:36:36.972Z,71.42
2023-01-27T02:41:46.899Z,71.52
2023-01-27T02:46:50.879Z,71.54
2023-01-27T02:51:54.743Z,71.71
2023-01-27T02:57:01.726Z,71.38
2023-01-27T03:02:08.244Z,71.22
2023-01-27T03:07:12.315Z,71.22
2023-01-27T03:12:22.402Z,71.48
2023-01-27T03:17:45.887Z,71.17
2023-01-27T03:22:51.306Z,71.20
2023-01-27T03:27:58.345Z,71.55
2023-01-27T03:33:09.160Z,71.56
2023-01-27T03:38:50.974Z,71.29
2023-01-27T03:44:13.519Z,71.40
2023-01-27T03:49:17.391Z,71.21
2023-01-27T03:54:21.347Z,71.11
2023-01-27T03:59:24.969Z,71.24
2023-01-27T04:04:47.557Z,71.37
2023-01-27T04:09:52.761Z,70.99
2023-01-27T04:14:56.647Z,71.47
2023-01-27T04:20:00.697Z,71.45
2023-01-27T04:25:04.847Z,71.14
2023-01-27T04:30:09.537Z,71.27
2023-01-27T04:35:13.629Z,71.43
2023-01-27T04:40:17.552Z,71.14
2023-01-27T04:45:21.484Z,71.06
2023-01-27T04:50:25.179Z,71.40
2023-01-27T04:55:28.994Z,71.62
2023-01-27T05:00:33.388Z,71.65
2023-01-27T05:05:38.185Z,71.86
2023-01-27T05:10:45.885Z,72.25
2023-01-27T05:15:49.969Z,72.73
2023-01-27T05:20:53.937Z,72.91
2023-01-27T05:25:57.618Z,72.95
2023-01-27T05:31:10.959Z,73.80
2023-01-27T05:36:17.521Z,73.41
2023-01-27T05:41:22.761Z,73.58
2023-01-27T05:46:30.143Z,73.81
2023-01-27T05:51:40.509Z,73.91
2023-01-27T05:56:44.294Z,74.10
2023-01-27T06:01:48.301Z,74.15
2023-01-27T06:06:52.299Z,74.44
2023-01-27T06:11:56.157Z,74.18
2023-01-27T06:17:02.668Z,74.50
2023-01-27T06:22:06.299Z,74.44
2023-01-27T06:27:11.770Z,74.50
2023-01-27T06:32:15.553Z,74.42
2023-01-27T06:37:19.453Z,74.64
2023-01-27T06:42:23.442Z,74.62
2023-01-27T06:47:27.164Z,75.20
2023-01-27T06:52:31.110Z,74.84
2023-01-27T06:57:34.802Z,75.37
2023-01-27T07:02:38.768Z,75.42
2023-01-27T07:07:42.940Z,75.30
2023-01-27T07:12:46.760Z,75.78
2023-01-27T07:17:50.775Z,75.66
2023-01-27T07:22:54.501Z,75.50
2023-01-27T07:28:00.582Z,75.66
2023-01-27T07:33:13.810Z,75.46
2023-01-27T07:38:17.538Z,75.20
2023-01-27T07:43:21.557Z,75.53
2023-01-27T07:48:25.502Z,75.22
2023-01-27T07:53:29.348Z,75.36
2023-01-27T07:58:33.270Z,75.35
2023-01-27T08:03:37.518Z,75.49
2023-01-27T08:08:41.698Z,75.53
2023-01-27T08:13:45.493Z,75.08
2023-01-27T08:18:50.530Z,75.37
2023-01-27T08:23:54.690Z,75.49
2023-01-27T08:28:58.723Z,75.65
2023-01-27T08:34:02.829Z,75.38
2023-01-27T08:39:06.650Z,75.45
2023-01-27T08:44:10.660Z,75.35
2023-01-27T08:49:14.803Z,75.42
2023-01-27T08:54:18.684Z,75.26
2023-01-27T08:59:24.025Z,75.32
2023-01-27T09:04:29.943Z,75.83
2023-01-27T09:09:33.994Z,75.45
2023-01-27T09:14:38.676Z,75.96
2023-01-27T09:19:42.733Z,75.84
2023-01-27T09:24:46.467Z,76.04
2023-01-27T09:29:50.327Z,76.18
2023-01-27T09:34:54.498Z,75.81
2023-01-27T09:40:05.039Z,76.10
2023-01-27T09:45:31.715Z,76.00
2023-01-27T09:51:19.870Z,76.02
2023-01-27T09:56:23.413Z,76.13
2023-01-27T10:01:42.519Z,76.33
2023-01-27T10:07:17.265Z,76.43
2023-01-27T10:12:23.911Z,76.42
2023-01-27T10:17:53.773Z,76.43
2023-01-27T10:23:11.177Z,76.92
2023-01-27T10:28:18.105Z,76.72
2023-01-27T10:33:28.705Z,76.65
2023-01-27T10:39:02.153Z,76.76
2023-01-27T10:44:31.796Z,76.67
2023-01-27T10:49:42.007Z,76.63
2023-01-27T10:55:00.497Z,76.78
2023-01-27T11:01:12.980Z,76.63
2023-01-27T11:05:53.986Z,76.92
2023-01-27T11:11:20.038Z,76.68
2023-01-27T11:16:26.635Z,76.85
2023-01-27T11:21:33.708Z,76.72
2023-01-27T11:26:45.500Z,76.73
2023-01-27T11:32:11.599Z,77.14
2023-01-27T11:37:20.520Z,77.13
2023-01-27T11:42:32.953Z,76.76
2023-01-27T11:47:40.726Z,76.85
2023-01-27T11:52:50.693Z,77.25
2023-01-27T11:58:15.401Z,76.77
2023-01-27T12:03:49.276Z,77.00
2023-01-27T12:08:53.339Z,77.14
2023-01-27T12:14:07.753Z,76.83
2023-01-27T12:19:36.460Z,76.99
2023-01-27T12:24:51.022Z,76.77
2023-01-27T12:29:59.310Z,76.82
2023-01-27T12:35:03.767Z,76.95
2023-01-27T12:40:18.373Z,77.07
2023-01-27T12:45:25.955Z,77.06
2023-01-27T12:50:35.929Z,76.99
2023-01-27T12:55:43.022Z,77.12
2023-01-27T13:00:47.173Z,76.89
2023-01-27T13:05:56.285Z,77.44
2023-01-27T13:11:03.218Z,76.93
2023-01-27T13:16:31.673Z,77.17
2023-01-27T13:21:38.919Z,76.88
2023-01-27T13:26:43.351Z,76.95
2023-01-27T13:32:07.755Z,76.83
2023-01-27T13:37:33.801Z,76.69
2023-01-27T13:42:57.535Z,76.80
2023-01-27T13:48:19.250Z,76.95
2023-01-27T13:53:23.207Z,76.79
2023-01-27T13:58:32.704Z,76.61
2023-01-27T14:03:46.863Z,76.60
2023-01-27T14:09:24.355Z,76.48
2023-01-27T14:14:34.052Z,76.75
2023-01-27T14:20:01.719Z,76.73
2023-01-27T14:25:25.151Z,76.62
2023-01-27T14:30:41.259Z,76.47
2023-01-27T14:35:52.392Z,76.54
2023-01-27T14:41:21.127Z,76.42
2023-01-27T14:46:37.045Z,76.82
2023-01-27T14:51:48.558Z,76.64
2023-01-27T14:57:10.380Z,76.76
2023-01-27T15:02:44.998Z,76.46
2023-01-27T15:08:17.230Z,76.75
2023-01-27T15:13:24.815Z,76.82
2023-01-27T15:18:43.468Z,76.49
2023-01-27T15:24:26.342Z,76.31
2023-01-27T15:29:32.618Z,76.09
2023-01-27T15:34:36.401Z,76.59
2023-01-27T15:40:04.054Z,76.35
2023-01-27T15:45:27.706Z,76.32
2023-01-27T15:50:34.149Z,76.51
2023-01-27T15:55:39.467Z,76.07
2023-01-27T16:00:51.379Z,76.09
2023-01-27T16:06:10.688Z,76.41
2023-01-27T16:11:30.221Z,76.43
2023-01-27T16:16:36.941Z,75.72
2023-01-27T16:21:59.536Z,75.97
2023-01-27T16:27:44.030Z,76.18
2023-01-27T16:33:08.218Z,75.98
2023-01-27T16:38:17.828Z,76.10
2023-01-27T16:43:33.378Z,76.06
2023-01-27T16:48:49.744Z,76.04
2023-01-27T16:54:01.031Z,75.96
2023-01-27T16:59:21.971Z,75.93
2023-01-27T17:04:28.205Z,76.12
2023-01-27T17:09:36.026Z,75.85
2023-01-27T17:14:47.071Z,75.92
2023-01-27T17:19:54.088Z,75.91
2023-01-27T17:25:04.676Z,76.08
2023-01-27T17:30:11.296Z,76.14
2023-01-27T17:35:27.255Z,76.09
2023-01-27T17:40:40.344Z,75.89
2023-01-27T17:45:44.476Z,76.01
2023-01-27T17:50:48.188Z,76.40
2023-01-27T17:55:54.388Z,76.24
2023-01-27T18:00:58.200Z,75.96
2023-01-27T18:06:05.179Z,76.18
2023-01-27T18:11:20.707Z,76.22
2023-01-27T18:16:25.304Z,76.07
2023-01-27T18:21:29.172Z,75.86
2023-01-27T18:26:39.202Z,76.35
2023-01-27T18:31:49.017Z,75.67
2023-01-27T18:36:59.968Z,76.31
2023-01-27T18:42:10.741Z,76.18
2023-01-27T18:47:20.461Z,76.35
2023-01-27T18:52:24.986Z,76.15
2023-01-27T18:57:29.345Z,75.93
2023-01-27T19:02:33.352Z,75.89
2023-01-27T19:07:37.702Z,76.12
2023-01-27T19:12:41.640Z,76.26
2023-01-27T19:17:46.865Z,76.10
2023-01-27T19:22:52.235Z,76.04
2023-01-27T19:28:03.407Z,76.32
2023-01-27T19:33:22.614Z,76.05
2023-01-27T19:38:28.287Z,75.96
2023-01-27T19:43:33.168Z,75.87
2023-01-27T19:48:36.805Z,76.06
2023-01-27T19:53:40.935Z,76.04
2023-01-27T19:58:54.439Z,75.95
2023-01-27T20:03:58.278Z,75.83
2023-01-27T20:09:04.402Z,76.19
2023-01-27T20:14:19.888Z,75.97
2023-01-27T20:19:23.769Z,75.78
2023-01-27T20:24:27.858Z,76.06
2023-01-27T20:29:34.775Z,76.11
2023-01-27T20:34:39.125Z,75.94
2023-01-27T20:39:42.961Z,76.00
2023-01-27T20:44:46.660Z,76.19
2023-01-27T20:49:50.574Z,75.69
2023-01-27T20:54:54.837Z,75.75
2023-01-27T21:00:03.188Z,75.90
2023-01-27T21:05:09.019Z,76.20
2023-01-27T21:10:13.253Z,75.93
2023-01-27T21:15:17.215Z,75.54
2023-01-27T21:20:21.101Z,75.90
2023-01-27T21:25:25.136Z,75.97
2023-01-27T21:30:30.576Z,75.98
2023-01-27T21:35:34.711Z,75.83
2023-01-27T21:40:40.883Z,75.84
2023-01-27T21:45:44.866Z,76.04
2023-01-27T21:50:52.393Z,76.29
2023-01-27T21:55:56.239Z,76.08
2023-01-27T22:01:06.505Z,76.08
2023-01-27T22:06:11.131Z,76.28
2023-01-27T22:11:14.894Z,76.22
2023-01-27T22:16:19.155Z,76.23
2023-01-27T22:21:23.128Z,76.03
2023-01-27T22:26:26.954Z,76.10
2023-01-27T22:31:31.011Z,75.99
2023-01-27T22:36:35.082Z,76.23
2023-01-27T22:41:39.124Z,75.97
2023-01-27T22:46:43.598Z,76.05
2023-01-27T22:51:49.057Z,76.23
2023-01-27T22:56:52.956Z,76.34
2023-01-27T23:01:56.754Z,76.05
2023-01-27T23:07:00.645Z,76.15
2023-01-27T23:12:04.768Z,76.37
2023-01-27T23:17:08.784Z,76.18
2023-01-27T23:22:12.799Z,76.07
2023-01-27T23:27:17.525Z,76.68
2023-01-27T23:32:21.608Z,76.77
2023-01-27T23:37:25.496Z,77.20
2023-01-27T23:42:29.330Z,76.52
2023-01-27T23:47:33.352Z,76.65
2023-01-27T23:52:37.173Z,76.60
2023-01-27T23:57:41.708Z,76.72
